createdAt,value
2022-10-04T00:02:22.829Z,5.00
2022-10-04T00:04:57.249Z,4.55
2022-10-04T00:07:30.024Z,4.55
2022-10-04T00:10:00.930Z,4.55
2022-10-04T00:12:34.783Z,5.28
2022-10-04T00:15:06.243Z,5.07
2022-10-04T00:17:35.977Z,4.95
2022-10-04T00:20:28.863Z,4.47
2022-10-04T00:23:28.583Z,4.60
2022-10-04T00:25:58.761Z,5.18
2022-10-04T00:28:45.072Z,4.80
2022-10-04T00:31:19.023Z,5.45
2022-10-04T00:33:49.272Z,4.43
2022-10-04T00:36:40.170Z,4.75
2022-10-04T00:39:34.270Z,4.13
2022-10-04T00:44:48.225Z,5.38
2022-10-04T00:47:25.305Z,5.00
2022-10-04T00:49:58.748Z,5.82
2022-10-04T00:52:30.159Z,4.85
2022-10-04T00:55:01.067Z,4.50
2022-10-04T00:57:32.652Z,5.13
2022-10-04T01:00:05.503Z,4.93
2022-10-04T01:02:39.678Z,4.50
2022-10-04T01:05:10.874Z,5.07
2022-10-04T01:07:44.006Z,4.60
2022-10-04T01:10:15.756Z,4.57
2022-10-04T01:12:50.896Z,5.05
2022-10-04T01:15:33.746Z,5.80
2022-10-04T01:18:14.557Z,4.33
2022-10-04T01:20:54.687Z,5.55
2022-10-04T01:23:40.601Z,5.15
2022-10-04T01:26:38.513Z,5.07
2022-10-04T01:29:10.649Z,5.70
2022-10-04T01:31:41.235Z,5.18
2022-10-04T01:34:09.937Z,5.63
2022-10-04T01:36:38.162Z,5.90
2022-10-04T01:39:08.707Z,6.05
2022-10-04T01:41:47.004Z,5.53
2022-10-04T01:44:24.752Z,6.32
2022-10-04T01:46:56.210Z,6.00
2022-10-04T01:49:30.416Z,6.38
2022-10-04T01:52:03.522Z,6.18
2022-10-04T01:54:35.769Z,6.32
2022-10-04T01:57:12.183Z,6.35
2022-10-04T01:59:45.377Z,6.13
2022-10-04T02:02:23.161Z,7.05
2022-10-04T02:04:55.091Z,6.78
2022-10-04T02:07:26.171Z,6.78
2022-10-04T02:09:59.712Z,6.38
2022-10-04T02:14:57.847Z,6.60
2022-10-04T02:17:29.428Z,7.22
2022-10-04T02:19:58.528Z,7.10
2022-10-04T02:22:27.317Z,7.55
2022-10-04T02:24:59.426Z,6.47
2022-10-04T02:27:29.075Z,7.18
2022-10-04T02:30:01.980Z,7.55
2022-10-04T02:32:49.686Z,7.18
2022-10-04T02:35:19.156Z,6.20
2022-10-04T02:37:49.724Z,6.90
2022-10-04T02:40:23.064Z,7.00
2022-10-04T02:42:59.773Z,6.05
2022-10-04T02:45:34.191Z,6.18
2022-10-04T02:48:07.302Z,6.68
2022-10-04T02:50:40.995Z,7.10
2022-10-04T02:53:15.470Z,6.65
2022-10-04T02:55:45.251Z,6.53
2022-10-04T02:58:26.828Z,7.18
2022-10-04T03:00:58.998Z,6.95
2022-10-04T03:03:29.151Z,6.18
2022-10-04T03:06:02.430Z,5.75
2022-10-04T03:08:33.322Z,7.15
2022-10-04T03:11:05.896Z,7.25
2022-10-04T03:13:34.505Z,6.18
2022-10-04T03:16:02.651Z,6.50
2022-10-04T03:18:32.237Z,7.00
2022-10-04T03:21:02.677Z,6.50
2022-10-04T03:23:33.042Z,7.13
2022-10-04T03:26:10.909Z,6.47
2022-10-04T03:28:39.400Z,6.18
2022-10-04T03:31:07.595Z,7.10
2022-10-04T03:33:35.842Z,6.28
2022-10-04T03:36:04.864Z,6.57
2022-10-04T03:38:35.697Z,6.70
2022-10-04T03:41:05.245Z,6.70
2022-10-04T03:43:38.558Z,6.97
2022-10-04T03:46:09.398Z,7.05
2022-10-04T03:48:41.236Z,6.72
2022-10-04T03:51:15.064Z,6.43
2022-10-04T03:53:45.831Z,6.43
2022-10-04T03:56:19.998Z,7.45
2022-10-04T03:58:50.763Z,7.00
2022-10-04T04:01:35.470Z,7.15
2022-10-04T04:04:13.018Z,6.95
2022-10-04T04:06:45.737Z,6.70
2022-10-04T04:09:22.792Z,6.93
2022-10-04T04:11:55.526Z,6.32
2022-10-04T04:14:27.357Z,6.35
2022-10-04T04:17:16.363Z,6.32
2022-10-04T04:19:47.556Z,6.32
2022-10-04T04:22:19.063Z,6.78
2022-10-04T04:24:47.650Z,6.40
2022-10-04T04:27:18.892Z,6.60
2022-10-04T04:29:51.774Z,6.60
2022-10-04T04:32:23.166Z,7.28
2022-10-04T04:34:54.202Z,6.80
2022-10-04T04:37:22.133Z,6.53
2022-10-04T04:39:54.705Z,8.63
2022-10-04T04:42:27.563Z,6.63
2022-10-04T04:45:00.194Z,7.20
2022-10-04T04:47:35.018Z,6.95
2022-10-04T04:50:08.609Z,6.85
2022-10-04T04:52:37.236Z,7.68
2022-10-04T04:55:06.568Z,7.60
2022-10-04T04:57:35.099Z,7.35
2022-10-04T05:00:03.656Z,7.70
2022-10-04T05:02:35.165Z,8.00
2022-10-04T05:05:25.985Z,8.65
2022-10-04T05:08:14.172Z,7.55
2022-10-04T05:10:46.371Z,8.07
2022-10-04T05:13:16.127Z,8.10
2022-10-04T05:15:45.010Z,7.90
2022-10-04T05:18:30.497Z,8.35
2022-10-04T05:21:05.853Z,7.50
2022-10-04T05:23:34.989Z,9.48
2022-10-04T05:26:04.742Z,8.27
2022-10-04T05:28:34.400Z,8.27
2022-10-04T05:31:24.200Z,9.25
2022-10-04T05:33:57.132Z,8.98
2022-10-04T05:36:43.338Z,9.40
2022-10-04T05:39:20.079Z,8.85
2022-10-04T05:41:57.078Z,10.00
2022-10-04T05:44:27.666Z,10.10
2022-10-04T05:47:00.857Z,9.30
2022-10-04T05:49:34.867Z,9.82
2022-10-04T05:52:13.986Z,10.20
2022-10-04T05:54:41.940Z,9.88
2022-10-04T05:57:29.535Z,10.60
2022-10-04T06:00:17.447Z,10.57
2022-10-04T06:03:14.446Z,8.88
2022-10-04T06:05:49.948Z,10.02
2022-10-04T06:08:30.961Z,10.48
2022-10-04T06:11:20.686Z,10.23
2022-10-04T06:14:16.181Z,10.02
2022-10-04T06:16:59.759Z,10.63
2022-10-04T06:19:43.361Z,10.15
2022-10-04T06:22:17.560Z,11.23
2022-10-04T06:24:51.706Z,9.63
2022-10-04T06:27:26.630Z,10.27
2022-10-04T06:29:59.813Z,10.57
2022-10-04T06:32:52.993Z,9.73
2022-10-04T06:35:42.724Z,10.90
2022-10-04T06:38:44.449Z,9.43
2022-10-04T06:41:40.922Z,11.38
2022-10-04T06:44:25.265Z,9.85
2022-10-04T06:47:06.038Z,11.20
2022-10-04T06:49:40.330Z,10.55
2022-10-04T06:52:30.618Z,10.30
2022-10-04T06:55:34.544Z,10.63
2022-10-04T06:58:33.211Z,10.00
2022-10-04T07:01:08.012Z,9.02
2022-10-04T07:03:46.949Z,11.20
2022-10-04T07:06:24.447Z,11.20
2022-10-04T07:08:56.218Z,11.27
2022-10-04T07:11:28.446Z,11.25
2022-10-04T07:14:01.685Z,11.00
2022-10-04T07:16:36.348Z,11.13
2022-10-04T07:19:24.861Z,10.57
2022-10-04T07:22:00.277Z,10.55
2022-10-04T07:24:39.182Z,10.20
2022-10-04T07:27:11.269Z,10.25
2022-10-04T07:29:45.767Z,10.02
2022-10-04T07:32:21.330Z,10.95
2022-10-04T07:34:55.589Z,10.02
2022-10-04T07:37:26.692Z,10.18
2022-10-04T07:40:01.215Z,11.10
2022-10-04T07:42:32.652Z,10.48
2022-10-04T07:45:11.054Z,10.52
2022-10-04T07:47:39.457Z,10.57
2022-10-04T07:50:26.725Z,10.68
2022-10-04T07:53:08.576Z,10.48
2022-10-04T07:55:51.109Z,10.57
2022-10-04T07:58:27.529Z,9.88
2022-10-04T08:01:01.710Z,9.85
2022-10-04T08:03:56.166Z,10.60
2022-10-04T08:06:34.659Z,10.05
2022-10-04T08:09:24.175Z,10.80
2022-10-04T08:12:07.954Z,10.88
2022-10-04T08:14:52.459Z,10.07
2022-10-04T08:17:34.972Z,10.60
2022-10-04T08:20:22.191Z,10.43
2022-10-04T08:23:02.228Z,10.13
2022-10-04T08:25:42.539Z,11.95
2022-10-04T08:28:38.633Z,11.02
2022-10-04T08:31:21.410Z,10.55
2022-10-04T08:34:02.750Z,11.13
2022-10-04T08:36:50.042Z,11.00
2022-10-04T08:39:32.439Z,11.55
2022-10-04T08:42:41.895Z,10.45
2022-10-04T08:45:26.260Z,10.40
2022-10-04T08:48:24.696Z,10.95
2022-10-04T08:51:27.259Z,10.52
2022-10-04T08:54:46.616Z,10.20
2022-10-04T08:57:34.253Z,9.48
2022-10-04T09:00:17.846Z,10.23
2022-10-04T09:03:15.115Z,9.50
2022-10-04T09:05:54.849Z,9.10
2022-10-04T09:09:10.399Z,8.23
2022-10-04T09:11:51.111Z,7.45
2022-10-04T09:14:57.162Z,8.00
2022-10-04T09:17:37.119Z,7.95
2022-10-04T09:20:37.722Z,8.07
2022-10-04T09:23:20.749Z,6.65
2022-10-04T09:26:05.450Z,7.15
2022-10-04T09:29:05.817Z,7.20
2022-10-04T09:31:56.409Z,7.15
2022-10-04T09:34:37.476Z,6.13
2022-10-04T09:37:41.844Z,6.40
2022-10-04T09:40:47.068Z,6.55
2022-10-04T09:43:55.562Z,5.55
2022-10-04T09:46:52.106Z,5.90
2022-10-04T09:49:41.638Z,5.47
2022-10-04T09:52:25.309Z,6.38
2022-10-04T09:55:08.029Z,6.32
2022-10-04T09:58:01.902Z,5.75
2022-10-04T10:00:37.537Z,5.63
2022-10-04T10:03:48.095Z,4.97
2022-10-04T10:06:32.021Z,4.95
2022-10-04T10:09:12.104Z,4.90
2022-10-04T10:12:08.210Z,4.90
2022-10-04T10:15:01.896Z,6.00
2022-10-04T10:17:40.238Z,5.53
2022-10-04T10:20:33.378Z,6.93
2022-10-04T10:23:21.148Z,6.55
2022-10-04T10:26:05.932Z,7.03
2022-10-04T10:29:06.566Z,7.28
2022-10-04T10:31:53.513Z,6.63
2022-10-04T10:34:45.472Z,6.05
2022-10-04T10:37:18.874Z,6.63
2022-10-04T10:40:13.888Z,6.07
2022-10-04T10:42:59.877Z,5.72
2022-10-04T10:45:44.996Z,5.22
2022-10-04T10:48:17.973Z,5.07
2022-10-04T10:51:02.695Z,4.53
2022-10-04T10:53:57.113Z,4.82
2022-10-04T10:56:56.778Z,4.13
2022-10-04T11:00:00.598Z,4.80
2022-10-04T11:02:49.855Z,5.70
2022-10-04T11:05:51.362Z,4.43
2022-10-04T11:08:56.589Z,4.55
2022-10-04T11:11:45.272Z,4.32
2022-10-04T11:14:33.636Z,4.30
2022-10-04T11:17:43.257Z,5.13
2022-10-04T11:20:42.319Z,4.40
2022-10-04T11:23:44.733Z,4.15
2022-10-04T11:26:55.285Z,4.47
2022-10-04T11:29:41.453Z,4.20
2022-10-04T11:32:55.046Z,4.80
2022-10-04T11:36:00.338Z,5.53
2022-10-04T11:38:48.452Z,4.40
2022-10-04T11:41:24.007Z,4.15
2022-10-04T11:44:41.107Z,5.05
2022-10-04T11:47:24.869Z,4.82
2022-10-04T11:53:13.893Z,3.45
2022-10-04T11:56:24.125Z,4.22
2022-10-04T11:59:27.653Z,4.13
2022-10-04T12:02:26.936Z,4.25
2022-10-04T12:05:26.826Z,4.05
2022-10-04T12:08:05.551Z,3.60
2022-10-04T12:10:38.653Z,3.70
2022-10-04T12:13:34.546Z,3.65
2022-10-04T12:16:33.877Z,3.88
2022-10-04T12:19:33.684Z,4.10
2022-10-04T12:22:24.835Z,3.97
2022-10-04T12:25:29.193Z,4.63
2022-10-04T12:28:15.973Z,4.38
2022-10-04T12:31:11.043Z,4.90
2022-10-04T12:33:46.505Z,3.67
2022-10-04T12:36:28.672Z,4.05
2022-10-04T12:39:16.669Z,4.28
2022-10-04T12:41:57.954Z,3.88
2022-10-04T12:44:41.016Z,4.93
2022-10-04T12:47:48.178Z,4.78
2022-10-04T12:50:27.211Z,4.45
2022-10-04T12:53:06.083Z,4.78
2022-10-04T12:55:53.981Z,4.63
2022-10-04T12:58:30.487Z,4.15
2022-10-04T13:01:07.011Z,4.93
2022-10-04T13:03:43.667Z,4.82
2022-10-04T13:06:21.451Z,4.63
2022-10-04T13:09:07.246Z,4.32
2022-10-04T13:12:03.327Z,3.65
2022-10-04T13:14:49.508Z,3.70
2022-10-04T13:17:36.167Z,4.03
2022-10-04T13:20:23.443Z,3.72
2022-10-04T13:22:59.356Z,4.25
2022-10-04T13:25:45.212Z,3.42
2022-10-04T13:28:24.518Z,3.95
2022-10-04T13:31:01.569Z,4.00
2022-10-04T13:33:40.343Z,3.60
2022-10-04T13:36:16.851Z,4.30
2022-10-04T13:39:19.324Z,4.45
2022-10-04T13:42:17.360Z,3.42
2022-10-04T13:45:10.439Z,3.17
2022-10-04T13:47:54.540Z,3.28
2022-10-04T13:50:38.829Z,3.75
2022-10-04T13:53:39.394Z,2.85
2022-10-04T13:56:40.185Z,3.58
2022-10-04T13:59:18.977Z,2.85
2022-10-04T14:02:26.098Z,3.55
2022-10-04T14:05:25.079Z,3.67
2022-10-04T14:08:14.897Z,3.53
2022-10-04T14:11:10.692Z,3.70
2022-10-04T14:14:10.202Z,3.50
2022-10-04T14:17:03.676Z,3.97
2022-10-04T14:20:04.291Z,4.85
2022-10-04T14:23:09.235Z,3.33
2022-10-04T14:26:08.696Z,4.05
2022-10-04T14:28:54.487Z,3.95
2022-10-04T14:31:47.889Z,3.88
2022-10-04T14:34:55.143Z,3.78
2022-10-04T14:38:09.554Z,3.42
2022-10-04T14:40:53.696Z,4.38
2022-10-04T14:43:51.501Z,3.13
2022-10-04T14:46:24.755Z,4.40
2022-10-04T14:49:07.925Z,3.35
2022-10-04T14:51:56.080Z,3.45
2022-10-04T14:54:37.497Z,3.92
2022-10-04T14:57:13.174Z,3.97
2022-10-04T14:59:55.555Z,3.53
2022-10-04T15:02:52.210Z,3.75
2022-10-04T15:05:57.864Z,3.53
2022-10-04T15:08:55.403Z,3.10
2022-10-04T15:11:41.262Z,3.83
2022-10-04T15:14:26.969Z,2.60
2022-10-04T15:16:58.878Z,2.45
2022-10-04T15:19:30.406Z,2.85
2022-10-04T15:22:07.748Z,2.90
2022-10-04T15:24:49.003Z,2.60
2022-10-04T15:27:53.353Z,2.75
2022-10-04T15:33:17.794Z,2.92
2022-10-04T15:35:56.465Z,3.28
2022-10-04T15:38:32.730Z,3.13
2022-10-04T15:41:07.416Z,3.22
2022-10-04T15:43:42.490Z,2.63
2022-10-04T15:46:38.033Z,2.97
2022-10-04T15:49:26.589Z,2.80
2022-10-04T15:52:30.403Z,3.15
2022-10-04T15:55:26.120Z,2.70
2022-10-04T15:58:26.010Z,2.83
2022-10-04T16:01:13.325Z,2.90
2022-10-04T16:03:48.760Z,2.17
2022-10-04T16:06:23.965Z,2.85
2022-10-04T16:09:16.117Z,3.42
2022-10-04T16:12:20.079Z,2.97
2022-10-04T16:17:45.613Z,3.00
2022-10-04T16:20:40.747Z,3.03
2022-10-04T16:23:33.071Z,2.70
2022-10-04T16:26:04.988Z,3.00
2022-10-04T16:29:13.430Z,2.67
2022-10-04T16:31:56.568Z,3.10
2022-10-04T16:34:35.287Z,3.55
2022-10-04T16:37:17.398Z,3.28
2022-10-04T16:40:00.443Z,2.65
2022-10-04T16:42:35.979Z,2.25
2022-10-04T16:45:33.945Z,2.72
2022-10-04T16:48:12.926Z,2.90
2022-10-04T16:51:01.688Z,2.83
2022-10-04T16:53:42.102Z,2.70
2022-10-04T16:56:16.670Z,2.60
2022-10-04T16:58:55.907Z,2.95
2022-10-04T17:02:07.935Z,2.72
2022-10-04T17:04:55.479Z,2.72
2022-10-04T17:07:36.818Z,3.75
2022-10-04T17:10:20.036Z,2.70
2022-10-04T17:12:56.525Z,3.13
2022-10-04T17:15:49.125Z,3.08
2022-10-04T17:18:27.820Z,2.83
2022-10-04T17:21:00.155Z,2.80
2022-10-04T17:23:55.540Z,2.90
2022-10-04T17:26:39.533Z,3.25
2022-10-04T17:31:52.452Z,3.33
2022-10-04T17:34:33.433Z,3.90
2022-10-04T17:37:17.989Z,3.28
2022-10-04T17:39:50.089Z,3.53
2022-10-04T17:42:30.417Z,4.50
2022-10-04T17:45:30.644Z,3.67
2022-10-04T17:48:21.424Z,4.15
2022-10-04T17:51:17.172Z,4.18
2022-10-04T17:54:09.493Z,4.00
2022-10-04T17:56:43.912Z,4.30
2022-10-04T17:59:17.318Z,4.47
2022-10-04T18:01:48.665Z,4.45
2022-10-04T18:04:20.541Z,4.50
2022-10-04T18:06:55.909Z,3.78
2022-10-04T18:09:31.921Z,4.60
2022-10-04T18:12:03.007Z,4.53
2022-10-04T18:14:47.362Z,4.85
2022-10-04T18:17:27.757Z,4.85
2022-10-04T18:20:08.631Z,5.13
2022-10-04T18:22:46.505Z,4.50
2022-10-04T18:25:19.580Z,4.88
2022-10-04T18:27:51.501Z,4.55
2022-10-04T18:30:22.475Z,4.63
2022-10-04T18:32:52.506Z,4.25
2022-10-04T18:35:26.834Z,5.45
2022-10-04T18:37:57.156Z,4.82
2022-10-04T18:40:28.611Z,5.10
2022-10-04T18:43:00.269Z,4.63
2022-10-04T18:45:29.977Z,5.47
2022-10-04T18:48:00.743Z,5.53
2022-10-04T18:50:35.964Z,5.00
2022-10-04T18:53:19.803Z,5.22
2022-10-04T18:55:58.686Z,4.90
2022-10-04T18:59:18.187Z,5.15
2022-10-04T19:02:02.915Z,5.30
2022-10-04T19:04:42.263Z,5.00
2022-10-04T19:07:13.070Z,5.50
2022-10-04T19:10:00.164Z,4.82
2022-10-04T19:12:36.040Z,5.70
2022-10-04T19:15:16.442Z,5.30
2022-10-04T19:17:52.698Z,5.22
2022-10-04T19:20:29.054Z,5.65
2022-10-04T19:23:12.289Z,5.93
2022-10-04T19:26:09.791Z,5.80
2022-10-04T19:28:38.564Z,5.75
2022-10-04T19:31:18.641Z,6.10
2022-10-04T19:33:51.153Z,5.13
2022-10-04T19:36:42.266Z,5.68
2022-10-04T19:39:24.937Z,6.43
2022-10-04T19:41:59.511Z,5.60
2022-10-04T19:44:40.129Z,5.80
2022-10-04T19:47:20.482Z,5.10
2022-10-04T19:49:55.044Z,5.30
2022-10-04T19:52:33.772Z,5.25
2022-10-04T19:55:17.572Z,5.45
2022-10-04T20:00:20.217Z,6.32
2022-10-04T20:02:49.095Z,5.25
2022-10-04T20:05:25.013Z,5.90
2022-10-04T20:07:57.521Z,6.40
2022-10-04T20:10:34.913Z,6.68
2022-10-04T20:13:24.156Z,6.03
2022-10-04T20:16:00.207Z,7.22
2022-10-04T20:19:05.160Z,5.82
2022-10-04T20:21:34.010Z,5.60
2022-10-04T20:24:02.541Z,6.55
2022-10-04T20:26:54.776Z,7.00
2022-10-04T20:30:01.851Z,6.57
2022-10-04T20:33:00.028Z,6.68
2022-10-04T20:36:05.729Z,6.53
2022-10-04T20:38:55.113Z,5.93
2022-10-04T20:42:20.073Z,6.97
2022-10-04T20:44:54.577Z,6.40
2022-10-04T20:47:37.262Z,6.47
2022-10-04T20:50:15.441Z,6.57
2022-10-04T20:52:48.892Z,6.18
2022-10-04T20:57:46.968Z,5.60
2022-10-04T21:00:20.184Z,6.85
2022-10-04T21:02:48.339Z,6.60
2022-10-04T21:05:24.890Z,6.57
2022-10-04T21:08:14.404Z,6.15
2022-10-04T21:11:04.102Z,6.05
2022-10-04T21:13:57.431Z,7.53
2022-10-04T21:16:40.308Z,6.38
2022-10-04T21:19:51.353Z,6.17
2022-10-04T21:22:39.810Z,6.50
2022-10-04T21:25:32.971Z,6.72
2022-10-04T21:28:23.722Z,6.75
2022-10-04T21:30:51.649Z,6.25
2022-10-04T21:33:19.511Z,6.28
2022-10-04T21:35:50.804Z,6.13
2022-10-04T21:38:20.103Z,6.22
2022-10-04T21:40:47.993Z,6.97
2022-10-04T21:43:15.838Z,5.93
2022-10-04T21:45:43.722Z,6.20
2022-10-04T21:48:11.701Z,6.43
2022-10-04T21:50:39.647Z,6.50
2022-10-04T21:53:07.935Z,6.35
2022-10-04T21:55:37.222Z,6.72
2022-10-04T21:58:05.243Z,7.22
2022-10-04T22:00:34.150Z,7.82
2022-10-04T22:03:02.080Z,6.28
2022-10-04T22:05:30.286Z,6.30
2022-10-04T22:07:59.561Z,6.38
2022-10-04T22:10:27.640Z,6.40
2022-10-04T22:12:57.234Z,6.90
2022-10-04T22:15:26.659Z,6.60
2022-10-04T22:17:55.010Z,7.15
2022-10-04T22:20:23.453Z,7.18
2022-10-04T22:22:51.480Z,6.60
2022-10-04T22:25:21.290Z,7.53
2022-10-04T22:27:49.321Z,7.40
2022-10-04T22:30:25.379Z,7.35
2022-10-04T22:32:56.111Z,7.45
2022-10-04T22:35:24.166Z,6.85
2022-10-04T22:37:52.532Z,7.55
2022-10-04T22:40:22.265Z,6.97
2022-10-04T22:42:52.276Z,7.55
2022-10-04T22:45:24.761Z,6.82
2022-10-04T22:47:53.188Z,7.70
2022-10-04T22:50:31.564Z,7.70
2022-10-04T22:53:04.312Z,7.00
2022-10-04T22:55:32.612Z,7.53
2022-10-04T22:58:02.404Z,6.85
2022-10-04T23:00:31.700Z,7.13
2022-10-04T23:02:59.605Z,7.53
2022-10-04T23:05:28.911Z,7.78
2022-10-04T23:07:56.987Z,7.07
2022-10-04T23:10:24.928Z,6.50
2022-10-04T23:12:52.775Z,7.90
2022-10-04T23:15:21.712Z,7.32
2022-10-04T23:17:55.918Z,7.28
2022-10-04T23:20:24.193Z,8.70
2022-10-04T23:22:54.886Z,7.05
2022-10-04T23:25:27.258Z,7.80
2022-10-04T23:27:58.043Z,7.50
2022-10-04T23:30:26.314Z,7.20
2022-10-04T23:33:01.051Z,7.28
2022-10-04T23:35:32.689Z,7.28
2022-10-04T23:38:03.617Z,8.27
2022-10-04T23:40:31.787Z,7.78
2022-10-04T23:43:03.704Z,7.78
2022-10-04T23:45:32.153Z,7.75
2022-10-04T23:48:02.016Z,7.85
2022-10-04T23:50:32.704Z,7.50
2022-10-04T23:53:04.621Z,7.65
2022-10-04T23:55:35.970Z,8.52
2022-10-04T23:58:14.046Z,8.13
